Time,TemperatureF,DewpointF,PressureIn,WindDirection,WindDirectionDegrees,WindSpeedMPH,WindSpeedGustMPH,Humidity,HourlyPrecipIn,Conditions,Clouds,dailyrainin,SoftwareType,DateUTC
2013-01-10 00:00:00,37.2,32.8,29.42,South,180,3.5,3.5,84,0.00,RA,SKC,0.00,WeatherDisplay:10.37,2013-01-10 05:00:00,
2013-01-10 00:02:00,37.2,32.8,29.42,South,180,3.5,3.5,84,0.00,RA,SKC,0.00,WeatherDisplay:10.37,2013-01-10 05:02:00,
2013-01-10 00:03:00,37.2,32.8,29.42,South,180,3.5,3.5,84,0.00,RA,SKC,0.00,WeatherDisplay:10.37,2013-01-10 05:03:00,
2013-01-10 00:06:00,37.2,32.8,29.42,South,180,3.5,3.5,84,0.00,RA,SKC,0.00,WeatherDisplay:10.37,2013-01-10 05:06:00,
2013-01-10 00:11:00,37.0,32.7,29.43,West,270,3.5,0.0,84,0.00,CLR,SKC,0.00,WeatherDisplay:10.37,2013-01-10 05:11:00,
2013-01-10 00:16:00,37.0,32.7,29.43,North,8,3.5,3.5,84,0.00,CLR,SKC,0.00,WeatherDisplay:10.37,2013-01-10 05:16:00,
2013-01-10 00:21:00,37.2,32.5,29.43,North,0,8.1,8.1,83,0.00,CLR,SKC,0.00,WeatherDisplay:10.37,2013-01-10 05:21:00,
2013-01-10 00:26:00,37.0,32.4,29.43,North,0,5.8,5.8,83,0.00,CLR,SKC,0.00,WeatherDisplay:10.37,2013-01-10 05:26:00,
2013-01-10 00:31:00,37.0,32.4,29.43,North,0,4.5,4.5,83,0.00,CLR,SKC,0.00,WeatherDisplay:10.37,2013-01-10 05:31:00,
2013-01-10 00:36:00,37.2,32.2,29.43,North,0,5.8,5.8,82,0.00,CLR,SKC,0.00,WeatherDisplay:10.37,2013-01-10 05:36:00,
2013-01-10 00:41:00,37.2,32.2,29.43,North,2,4.6,4.6,82,0.00,CLR,SKC,0.00,WeatherDisplay:10.37,2013-01-10 05:41:00,
2013-01-10 00:46:00,37.2,32.2,29.43,NW,315,4.6,4.6,82,0.00,CLR,SKC,0.00,WeatherDisplay:10.37,2013-01-10 05:46:00,
2013-01-10 00:51:00,37.4,32.1,29.44,North,8,8.1,8.1,81,0.00,CLR,SKC,0.00,WeatherDisplay:10.37,2013-01-10 05:51:00,
2013-01-10 00:56:00,37.4,31.8,29.44,North,0,5.8,5.8,80,0.00,CLR,SKC,0.00,WeatherDisplay:10.37,2013-01-10 05:56:00,
2013-01-10 01:01:00,37.2,31.9,29.44,North,0,3.5,3.5,81,0.00,CLR,SKC,0.00,WeatherDisplay:10.37,2013-01-10 06:01:00,
2013-01-10 01:06:00,37.2,31.9,29.44,North,0,3.5,3.5,81,0.00,CLR,SKC,0.00,WeatherDisplay:10.37,2013-01-10 06:06:00,
2013-01-10 01:11:00,36.9,31.9,29.44,North,0,3.5,3.5,82,0.00,CLR,SKC,0.00,WeatherDisplay:10.37,2013-01-10 06:11:00,
2013-01-10 01:17:00,36.7,31.7,29.44,North,0,3.5,3.5,82,0.00,CLR,SKC,0.00,WeatherDisplay:10.37,2013-01-10 06:17:00,
2013-01-10 01:22:00,36.5,31.5,29.44,West,270,3.5,3.5,82,0.00,CLR,SKC,0.00,WeatherDisplay:10.37,2013-01-10 06:22:00,
2013-01-10 01:27:00,36.5,31.5,29.44,North,1,3.5,3.5,82,0.00,CLR,SKC,0.00,WeatherDisplay:10.37,2013-01-10 06:27:00,
2013-01-10 01:32:00,36.3,31.4,29.44,North,0,3.5,3.5,82,0.00,CLR,SKC,0.00,WeatherDisplay:10.37,2013-01-10 06:32:00,
2013-01-10 01:37:00,36.1,31.5,29.44,North,0,3.5,3.5,83,0.00,CLR,SKC,0.00,WeatherDisplay:10.37,2013-01-10 06:37:00,
2013-01-10 01:42:00,36.0,31.3,29.44,North,0,3.5,3.5,83,0.00,CLR,SKC,0.00,WeatherDisplay:10.37,2013-01-10 06:42:00,
2013-01-10 01:47:00,36.0,31.3,29.44,North,0,3.5,3.5,83,0.00,CLR,SKC,0.00,WeatherDisplay:10.37,2013-01-10 06:47:00,
2013-01-10 01:52:00,36.0,31.3,29.44,North,0,3.5,3.5,83,0.00,CLR,SKC,0.00,WeatherDisplay:10.37,2013-01-10 06:52:00,
2013-01-10 01:57:00,35.8,31.1,29.44,North,0,3.5,0.0,83,0.00,CLR,SKC,0.00,WeatherDisplay:10.37,2013-01-10 06:57:00,
2013-01-10 02:02:00,35.8,31.1,29.44,North,0,3.5,3.5,83,0.00,CLR,SKC,0.00,WeatherDisplay:10.37,2013-01-10 07:02:00,
2013-01-10 02:07:00,35.8,31.1,29.44,North,0,3.5,3.5,83,0.00,CLR,SKC,0.00,WeatherDisplay:10.37,2013-01-10 07:07:00,
2013-01-10 02:12:00,35.8,31.1,29.44,North,0,3.5,3.5,83,0.00,CLR,SKC,0.00,WeatherDisplay:10.37,2013-01-10 07:12:00,
2013-01-10 02:17:00,35.8,31.1,29.45,North,0,3.5,3.5,83,0.00,CLR,SKC,0.00,WeatherDisplay:10.37,2013-01-10 07:17:00,
2013-01-10 02:22:00,35.6,30.9,29.45,North,0,3.5,3.5,83,0.00,CLR,SKC,0.00,WeatherDisplay:10.37,2013-01-10 07:22:00,
2013-01-10 02:27:00,35.6,30.9,29.45,North,0,2.3,2.3,83,0.00,CLR,SKC,0.00,WeatherDisplay:10.37,2013-01-10 07:27:00,
2013-01-10 02:32:00,35.4,30.8,29.45,North,0,3.5,3.5,83,0.00,CLR,SKC,0.00,WeatherDisplay:10.37,2013-01-10 07:32:00,
2013-01-10 02:37:00,35.1,30.7,29.44,NNE,16,3.5,3.5,84,0.00,CLR,SKC,0.00,WeatherDisplay:10.37,2013-01-10 07:37:00,
2013-01-10 02:42:00,34.9,30.5,29.44,North,0,3.5,3.5,84,0.00,CLR,SKC,0.00,WeatherDisplay:10.37,2013-01-10 07:42:00,
2013-01-10 02:47:00,34.7,30.7,29.45,North,0,2.3,2.3,85,0.00,CLR,SKC,0.00,WeatherDisplay:10.37,2013-01-10 07:47:00,
2013-01-10 02:52:00,34.7,30.7,29.45,North,0,3.5,3.5,85,0.00,CLR,SKC,0.00,WeatherDisplay:10.37,2013-01-10 07:52:00,
2013-01-10 02:57:00,34.9,30.8,29.45,North,0,4.6,4.6,85,0.00,CLR,SKC,0.00,WeatherDisplay:10.37,2013-01-10 07:57:00,
2013-01-10 03:02:00,34.9,30.8,29.45,North,0,3.5,3.5,85,0.00,CLR,SKC,0.00,WeatherDisplay:10.37,2013-01-10 08:02:00,
2013-01-10 03:07:00,34.9,30.8,29.45,North,0,3.5,3.5,85,0.00,CLR,SKC,0.00,WeatherDisplay:10.37,2013-01-10 08:07:00,
2013-01-10 03:12:00,34.9,30.5,29.45,North,0,3.5,3.5,84,0.00,CLR,SKC,0.00,WeatherDisplay:10.37,2013-01-10 08:12:00,
2013-01-10 03:17:00,34.9,30.5,29.45,North,0,3.5,3.5,84,0.00,CLR,SKC,0.00,WeatherDisplay:10.37,2013-01-10 08:17:00,
2013-01-10 03:22:00,34.9,30.5,29.45,North,0,3.5,3.5,84,0.00,CLR,SKC,0.00,WeatherDisplay:10.37,2013-01-10 08:22:00,
2013-01-10 03:27:00,34.5,30.5,29.44,North,0,3.5,3.5,85,0.00,CLR,SKC,0.00,WeatherDisplay:10.37,2013-01-10 08:27:00,
2013-01-10 03:32:00,34.5,30.5,29.45,North,0,1.2,0.0,85,0.00,CLR,SKC,0.00,WeatherDisplay:10.37,2013-01-10 08:32:00,
2013-01-10 03:37:00,34.3,30.3,29.45,North,0,2.3,2.3,85,0.00,CLR,SKC,0.00,WeatherDisplay:10.37,2013-01-10 08:37:00,
2013-01-10 03:42:00,34.5,30.5,29.45,North,0,3.5,3.5,85,0.00,CLR,SKC,0.00,WeatherDisplay:10.37,2013-01-10 08:42:00,
2013-01-10 03:47:00,34.3,30.3,29.44,North,0,3.5,3.5,85,0.00,CLR,SKC,0.00,WeatherDisplay:10.37,2013-01-10 08:47:00,
2013-01-10 03:52:00,34.3,30.6,29.44,North,0,4.6,4.6,86,0.00,CLR,SKC,0.00,WeatherDisplay:10.37,2013-01-10 08:52:00,
2013-01-10 03:57:00,34.2,30.4,29.44,North,0,3.5,3.5,86,0.00,CLR,SKC,0.00,WeatherDisplay:10.37,2013-01-10 08:57:00,
2013-01-10 04:02:00,34.0,30.2,29.44,North,0,1.6,1.6,86,0.00,CLR,SKC,0.00,WeatherDisplay:10.37,2013-01-10 09:02:00,
2013-01-10 04:07:00,34.0,30.2,29.44,North,0,1.2,1.2,86,0.00,CLR,SKC,0.00,WeatherDisplay:10.37,2013-01-10 09:07:00,
2013-01-10 04:12:00,34.2,30.4,29.44,North,0,3.5,3.5,86,0.00,CLR,SKC,0.00,WeatherDisplay:10.37,2013-01-10 09:12:00,
2013-01-10 04:17:00,34.0,30.2,29.44,North,0,3.5,3.5,86,0.00,CLR,SKC,0.00,WeatherDisplay:10.37,2013-01-10 09:17:00,
2013-01-10 04:22:00,34.0,30.5,29.44,West,270,3.5,3.5,87,0.00,CLR,SKC,0.00,WeatherDisplay:10.37,2013-01-10 09:22:00,
2013-01-10 04:27:00,34.0,30.5,29.44,North,1,1.2,1.2,87,0.00,CLR,SKC,0.00,WeatherDisplay:10.37,2013-01-10 09:27:00,
2013-01-10 04:32:00,34.0,30.5,29.44,North,0,3.5,3.5,87,0.00,CLR,SKC,0.00,WeatherDisplay:10.37,2013-01-10 09:32:00,
2013-01-10 04:37:00,34.0,30.5,29.44,North,0,3.5,3.5,87,0.00,CLR,SKC,0.00,WeatherDisplay:10.37,2013-01-10 09:37:00,
2013-01-10 04:42:00,34.0,30.5,29.44,North,0,3.8,3.8,87,0.00,CLR,SKC,0.00,WeatherDisplay:10.37,2013-01-10 09:42:00,
2013-01-10 04:47:00,34.0,30.8,29.44,North,0,3.5,3.5,88,0.00,CLR,SKC,0.00,WeatherDisplay:10.37,2013-01-10 09:47:00,
2013-01-10 04:52:00,33.8,30.6,29.44,North,0,3.5,3.5,88,0.00,CLR,SKC,0.00,WeatherDisplay:10.37,2013-01-10 09:52:00,
2013-01-10 04:57:00,33.8,30.6,29.44,North,0,3.5,3.5,88,0.00,CLR,SKC,0.00,WeatherDisplay:10.37,2013-01-10 09:57:00,
2013-01-10 05:02:00,33.8,30.6,29.44,NW,315,2.3,2.3,88,0.00,CLR,SKC,0.00,WeatherDisplay:10.37,2013-01-10 10:02:00,
2013-01-10 05:07:00,33.6,30.7,29.44,NW,315,2.3,2.3,89,0.00,CLR,SKC,0.00,WeatherDisplay:10.37,2013-01-10 10:07:00,
2013-01-10 05:12:00,33.4,30.5,29.44,NW,315,3.5,3.5,89,0.00,CLR,SKC,0.00,WeatherDisplay:10.37,2013-01-10 10:12:00,
2013-01-10 05:17:00,33.4,30.5,29.45,NW,315,4.6,4.6,89,0.00,CLR,SKC,0.00,WeatherDisplay:10.37,2013-01-10 10:17:00,
2013-01-10 05:22:00,33.4,30.5,29.45,NNE,14,3.5,3.5,89,0.00,CLR,SKC,0.00,WeatherDisplay:10.37,2013-01-10 10:22:00,
2013-01-10 05:27:00,33.3,30.6,29.45,NW,315,3.5,3.5,90,0.00,CLR,SKC,0.00,WeatherDisplay:10.37,2013-01-10 10:27:00,
2013-01-10 05:32:00,33.1,30.5,29.45,NW,315,3.5,0.0,90,0.00,CLR,SKC,0.00,WeatherDisplay:10.37,2013-01-10 10:32:00,
2013-01-10 05:37:00,32.9,30.3,29.45,NW,315,2.3,0.0,90,0.00,CLR,SKC,0.00,WeatherDisplay:10.37,2013-01-10 10:37:00,
2013-01-10 05:42:00,32.5,29.9,29.45,NE,45,0.0,0.0,90,0.00,CLR,SKC,0.00,WeatherDisplay:10.37,2013-01-10 10:42:00,
2013-01-10 05:47:00,31.8,29.2,29.45,NE,45,0.0,0.0,90,0.00,CLR,SKC,0.00,WeatherDisplay:10.37,2013-01-10 10:47:00,
2013-01-10 05:52:00,32.0,29.7,29.46,NE,45,0.0,0.0,91,0.00,CLR,SKC,0.00,WeatherDisplay:10.37,2013-01-10 10:52:00,
2013-01-10 05:57:00,32.0,29.7,29.46,NE,45,0.0,0.0,91,0.00,CLR,SKC,0.00,WeatherDisplay:10.37,2013-01-10 10:57:00,
2013-01-10 06:02:00,31.8,29.5,29.46,NE,45,0.0,0.0,91,0.00,CLR,SKC,0.00,WeatherDisplay:10.37,2013-01-10 11:02:00,
2013-01-10 06:07:00,31.8,29.5,29.47,NE,45,0.0,0.0,91,0.00,CLR,SKC,0.00,WeatherDisplay:10.37,2013-01-10 11:07:00,
2013-01-10 06:12:00,31.1,29.3,29.47,South,180,0.0,0.0,93,0.00,CLR,SKC,0.00,WeatherDisplay:10.37,2013-01-10 11:12:00,
2013-01-10 06:17:00,30.7,29.0,29.47,South,180,0.0,0.0,93,0.00,CLR,SKC,0.00,WeatherDisplay:10.37,2013-01-10 11:17:00,
2013-01-10 06:22:00,30.7,29.2,29.47,NE,45,0.0,0.0,94,0.00,CLR,SKC,0.00,WeatherDisplay:10.37,2013-01-10 11:22:00,
2013-01-10 06:28:00,30.9,29.7,29.47,SE,135,0.0,0.0,95,0.00,CLR,SKC,0.00,WeatherDisplay:10.37,2013-01-10 11:28:00,
2013-01-10 06:33:00,30.9,29.7,29.47,SE,135,0.0,0.0,95,0.00,CLR,SKC,0.00,WeatherDisplay:10.37,2013-01-10 11:33:00,
2013-01-10 06:38:00,30.7,29.5,29.48,SE,135,0.0,0.0,95,0.00,CLR,SKC,0.00,WeatherDisplay:10.37,2013-01-10 11:38:00,
2013-01-10 06:43:00,30.7,29.5,29.48,SE,135,0.0,0.0,95,0.00,CLR,SKC,0.00,WeatherDisplay:10.37,2013-01-10 11:43:00,
2013-01-10 06:48:00,30.7,29.7,29.48,North,0,0.0,0.0,96,0.00,CLR,SKC,0.00,WeatherDisplay:10.37,2013-01-10 11:48:00,
2013-01-10 06:53:00,31.3,30.3,29.48,North,0,0.0,0.0,96,0.00,CLR,SKC,0.00,WeatherDisplay:10.37,2013-01-10 11:53:00,
2013-01-10 06:58:00,31.6,30.6,29.49,North,0,0.0,0.0,96,0.00,CLR,SKC,0.00,WeatherDisplay:10.37,2013-01-10 11:58:00,
2013-01-10 07:03:00,31.6,30.6,29.49,North,0,0.0,0.0,96,0.00,CLR,SKC,0.00,WeatherDisplay:10.37,2013-01-10 12:03:00,
2013-01-10 07:08:00,31.1,29.8,29.49,NW,315,0.0,0.0,95,0.00,CLR,SKC,0.00,WeatherDisplay:10.37,2013-01-10 12:08:00,
2013-01-10 07:13:00,31.5,30.5,29.49,North,0,0.0,0.0,96,0.00,CLR,SKC,0.00,WeatherDisplay:10.37,2013-01-10 12:13:00,
2013-01-10 07:18:00,31.5,30.5,29.50,North,0,0.0,0.0,96,0.00,CLR,SKC,0.00,WeatherDisplay:10.37,2013-01-10 12:18:00,
2013-01-10 07:23:00,31.5,30.2,29.50,North,0,0.0,0.0,95,0.00,CLR,SKC,0.00,WeatherDisplay:10.37,2013-01-10 12:23:00,
2013-01-10 07:28:00,31.1,29.8,29.50,East,90,0.0,0.0,95,0.00,CLR,SKC,0.00,WeatherDisplay:10.37,2013-01-10 12:28:00,
2013-01-10 07:33:00,30.4,29.1,29.50,NE,45,0.0,0.0,95,0.00,CLR,SKC,0.00,WeatherDisplay:10.37,2013-01-10 12:33:00,
2013-01-10 07:38:00,29.3,28.0,29.50,NE,45,0.0,0.0,95,0.00,CLR,SKC,0.00,WeatherDisplay:10.37,2013-01-10 12:38:00,
2013-01-10 07:43:00,28.6,27.3,29.50,East,90,0.0,0.0,95,0.00,CLR,SKC,0.00,WeatherDisplay:10.37,2013-01-10 12:43:00,
2013-01-10 07:48:00,28.2,27.2,29.50,East,90,0.0,0.0,96,0.00,CLR,SKC,0.00,WeatherDisplay:10.37,2013-01-10 12:48:00,
2013-01-10 07:53:00,28.0,27.3,29.51,East,90,0.0,0.0,97,0.00,CLR,SKC,0.00,WeatherDisplay:10.37,2013-01-10 12:53:00,
2013-01-10 07:58:00,28.2,27.7,29.51,East,90,0.0,0.0,98,0.00,CLR,SKC,0.00,WeatherDisplay:10.37,2013-01-10 12:58:00,
2013-01-10 08:03:00,28.2,27.7,29.51,East,90,0.0,0.0,98,0.00,CLR,SKC,0.00,WeatherDisplay:10.37,2013-01-10 13:03:00,
2013-01-10 08:08:00,28.6,28.6,29.51,SE,135,0.0,0.0,100,0.00,,SKC,0.00,WeatherDisplay:10.37,2013-01-10 13:08:00,
2013-01-10 08:13:00,28.9,28.9,29.51,SE,135,0.0,0.0,100,0.00,,SKC,0.00,WeatherDisplay:10.37,2013-01-10 13:13:00,
2013-01-10 08:18:00,28.9,28.9,29.51,East,90,0.0,0.0,100,0.00,,SKC,0.00,WeatherDisplay:10.37,2013-01-10 13:18:00,
2013-01-10 08:23:00,28.9,28.9,29.52,East,90,0.0,0.0,100,0.00,,SKC,0.00,WeatherDisplay:10.37,2013-01-10 13:23:00,
2013-01-10 08:28:00,28.9,28.9,29.52,East,90,0.0,0.0,100,0.00,,SKC,0.00,WeatherDisplay:10.37,2013-01-10 13:28:00,
2013-01-10 08:33:00,29.3,29.3,29.52,East,90,0.0,0.0,100,0.00,,SKC,0.00,WeatherDisplay:10.37,2013-01-10 13:33:00,
2013-01-10 08:38:00,30.4,30.4,29.52,East,90,0.0,0.0,100,0.00,,SKC,0.00,WeatherDisplay:10.37,2013-01-10 13:38:00,
2013-01-10 08:43:00,32.5,32.5,29.53,NE,45,0.0,0.0,100,0.00,,SKC,0.00,WeatherDisplay:10.37,2013-01-10 13:43:00,
2013-01-10 08:48:00,35.2,35.2,29.53,NE,45,0.0,0.0,100,0.00,,SKC,0.00,WeatherDisplay:10.37,2013-01-10 13:48:00,
2013-01-10 08:53:00,35.4,35.4,29.53,North,0,0.0,0.0,100,0.00,,SKC,0.00,WeatherDisplay:10.37,2013-01-10 13:53:00,
2013-01-10 08:58:00,36.1,35.4,29.53,ENE,68,0.0,0.0,97,0.00,CLR,SKC,0.00,WeatherDisplay:10.37,2013-01-10 13:58:00,
2013-01-10 09:03:00,36.7,35.9,29.54,NE,45,0.0,0.0,97,0.00,CLR,SKC,0.00,WeatherDisplay:10.37,2013-01-10 14:03:00,
2013-01-10 09:08:00,37.9,35.5,29.53,NE,45,0.0,0.0,91,0.00,CLR,SKC,0.00,WeatherDisplay:10.37,2013-01-10 14:08:00,
2013-01-10 09:13:00,37.6,34.3,29.53,NE,45,0.0,0.0,88,0.00,CLR,SKC,0.00,WeatherDisplay:10.37,2013-01-10 14:13:00,
2013-01-10 09:18:00,37.6,34.1,29.54,NE,45,0.0,0.0,87,0.00,CLR,SKC,0.00,WeatherDisplay:10.37,2013-01-10 14:18:00,
2013-01-10 09:23:00,37.8,33.7,29.54,NE,45,0.0,0.0,85,0.00,CLR,SKC,0.00,WeatherDisplay:10.37,2013-01-10 14:23:00,
2013-01-10 09:28:00,37.0,32.4,29.54,NE,45,0.0,0.0,83,0.00,CLR,SKC,0.00,WeatherDisplay:10.37,2013-01-10 14:28:00,
2013-01-10 09:33:00,36.5,31.8,29.54,NE,45,3.5,3.5,83,0.00,CLR,SKC,0.00,WeatherDisplay:10.37,2013-01-10 14:33:00,
2013-01-10 09:38:00,35.8,31.4,29.54,NE,45,3.5,3.5,84,0.00,CLR,SKC,0.00,WeatherDisplay:10.37,2013-01-10 14:38:00,
2013-01-10 09:43:00,35.1,31.0,29.54,NE,45,3.5,3.5,85,0.00,CLR,SKC,0.00,WeatherDisplay:10.37,2013-01-10 14:43:00,
2013-01-10 09:48:00,35.2,31.5,29.54,NE,45,2.3,0.0,86,0.00,CLR,SKC,0.00,WeatherDisplay:10.37,2013-01-10 14:48:00,
2013-01-10 09:53:00,35.4,31.6,29.55,NE,45,4.6,4.6,86,0.00,CLR,SKC,0.00,WeatherDisplay:10.37,2013-01-10 14:53:00,
2013-01-10 09:58:00,35.4,31.6,29.54,NE,45,3.5,3.5,86,0.00,CLR,SKC,0.00,WeatherDisplay:10.37,2013-01-10 14:58:00,
2013-01-10 10:03:00,35.6,31.8,29.54,NE,45,3.5,3.5,86,0.00,CLR,SKC,0.00,WeatherDisplay:10.37,2013-01-10 15:03:00,
2013-01-10 10:08:00,36.0,32.2,29.54,NE,45,3.5,3.5,86,0.00,CLR,SKC,0.00,WeatherDisplay:10.37,2013-01-10 15:08:00,
2013-01-10 10:13:00,36.5,32.4,29.54,East,90,5.8,5.8,85,0.00,CLR,SKC,0.00,WeatherDisplay:10.37,2013-01-10 15:13:00,
2013-01-10 10:18:00,37.2,32.5,29.54,NE,45,5.8,5.8,83,0.00,CLR,SKC,0.00,WeatherDisplay:10.37,2013-01-10 15:18:00,
2013-01-10 10:23:00,38.1,33.1,29.54,NE,45,3.5,3.5,82,0.00,CLR,SKC,0.00,WeatherDisplay:10.37,2013-01-10 15:23:00,
2013-01-10 10:28:00,38.7,33.0,29.54,NE,45,5.8,5.8,80,0.00,CLR,SKC,0.00,WeatherDisplay:10.37,2013-01-10 15:28:00,
2013-01-10 10:33:00,39.0,33.1,29.54,NE,45,3.5,3.5,79,0.00,CLR,SKC,0.00,WeatherDisplay:10.37,2013-01-10 15:33:00,
2013-01-10 10:38:00,38.8,32.2,29.54,East,90,4.6,4.6,77,0.00,CLR,SKC,0.00,WeatherDisplay:10.37,2013-01-10 15:38:00,
2013-01-10 10:43:00,38.3,31.7,29.54,NE,45,5.8,5.8,77,0.00,CLR,SKC,0.00,WeatherDisplay:10.37,2013-01-10 15:43:00,
2013-01-10 10:48:00,38.1,32.2,29.54,NE,45,3.5,3.5,79,0.00,CLR,SKC,0.00,WeatherDisplay:10.37,2013-01-10 15:48:00,
2013-01-10 10:53:00,38.5,32.2,29.54,NE,45,5.8,5.8,78,0.00,CLR,SKC,0.00,WeatherDisplay:10.37,2013-01-10 15:53:00,
2013-01-10 10:58:00,38.3,32.0,29.53,East,90,3.5,3.5,78,0.00,CLR,SKC,0.00,WeatherDisplay:10.37,2013-01-10 15:58:00,
2013-01-10 11:03:00,38.1,31.9,29.53,NE,45,3.5,0.0,78,0.00,CLR,SKC,0.00,WeatherDisplay:10.37,2013-01-10 16:03:00,
2013-01-10 11:08:00,38.1,31.5,29.53,NE,45,4.6,4.6,77,0.00,CLR,SKC,0.00,WeatherDisplay:10.37,2013-01-10 16:08:00,
2013-01-10 11:13:00,37.8,31.2,29.52,NE,45,5.8,5.8,77,0.00,CLR,SKC,0.00,WeatherDisplay:10.37,2013-01-10 16:13:00,
2013-01-10 11:18:00,37.9,31.7,29.51,NE,45,8.1,8.1,78,0.00,CLR,SKC,0.00,WeatherDisplay:10.37,2013-01-10 16:18:00,
2013-01-10 11:23:00,37.9,31.7,29.52,NE,45,4.6,4.6,78,0.00,CLR,SKC,0.00,WeatherDisplay:10.37,2013-01-10 16:23:00,
2013-01-10 11:28:00,38.1,31.9,29.52,NE,45,3.5,3.5,78,0.00,CLR,SKC,0.00,WeatherDisplay:10.37,2013-01-10 16:28:00,
2013-01-10 11:33:00,38.5,32.2,29.51,NE,45,2.3,2.3,78,0.00,CLR,SKC,0.00,WeatherDisplay:10.37,2013-01-10 16:33:00,
2013-01-10 11:38:00,38.8,32.2,29.51,NE,45,3.5,3.8,77,0.00,CLR,SKC,0.00,WeatherDisplay:10.37,2013-01-10 16:38:00,
2013-01-10 11:43:00,38.7,31.7,29.50,NE,45,4.6,4.6,76,0.00,CLR,SKC,0.00,WeatherDisplay:10.37,2013-01-10 16:43:00,
2013-01-10 11:48:00,38.8,32.2,29.51,East,90,4.6,0.0,77,0.00,CLR,SKC,0.00,WeatherDisplay:10.37,2013-01-10 16:48:00,
2013-01-10 11:53:00,39.7,33.1,29.51,East,90,1.2,0.0,77,0.00,CLR,SKC,0.00,WeatherDisplay:10.37,2013-01-10 16:53:00,
2013-01-10 11:58:00,39.9,32.6,29.51,East,90,3.5,3.5,75,0.00,CLR,SKC,0.00,WeatherDisplay:10.37,2013-01-10 16:58:00,
2013-01-10 12:03:00,39.7,32.5,29.50,NE,45,2.3,0.0,75,0.00,CLR,SKC,0.00,WeatherDisplay:10.37,2013-01-10 17:03:00,
2013-01-10 12:08:00,40.1,32.8,29.50,SE,135,2.3,0.0,75,0.00,CLR,SKC,0.00,WeatherDisplay:10.37,2013-01-10 17:08:00,
2013-01-10 12:13:00,39.9,32.3,29.50,East,90,4.6,4.6,74,0.00,CLR,SKC,0.00,WeatherDisplay:10.37,2013-01-10 17:13:00,
2013-01-10 12:18:00,39.7,32.5,29.49,NE,45,4.6,4.6,75,0.00,CLR,SKC,0.00,WeatherDisplay:10.37,2013-01-10 17:18:00,
2013-01-10 12:23:00,39.6,32.3,29.49,NW,315,3.5,3.5,75,0.00,CLR,SKC,0.00,WeatherDisplay:10.37,2013-01-10 17:23:00,
2013-01-10 12:28:00,39.0,32.1,29.49,East,90,3.5,0.0,76,0.00,CLR,SKC,0.00,WeatherDisplay:10.37,2013-01-10 17:28:00,
2013-01-10 12:33:00,39.9,33.3,29.49,SE,135,1.2,0.0,77,0.00,CLR,SKC,0.00,WeatherDisplay:10.37,2013-01-10 17:33:00,
2013-01-10 12:38:00,40.3,33.0,29.49,East,90,1.2,0.0,75,0.00,CLR,SKC,0.00,WeatherDisplay:10.37,2013-01-10 17:38:00,
2013-01-10 12:43:00,40.3,33.0,29.49,East,90,1.2,0.0,75,0.00,CLR,SKC,0.00,WeatherDisplay:10.37,2013-01-10 17:43:00,
2013-01-10 12:48:00,41.0,33.0,29.49,East,90,1.2,0.0,73,0.00,CLR,SKC,0.00,WeatherDisplay:10.37,2013-01-10 17:48:00,
2013-01-10 12:53:00,41.0,32.7,29.48,NE,45,3.5,3.5,72,0.00,CLR,SKC,0.00,WeatherDisplay:10.37,2013-01-10 17:53:00,
2013-01-10 12:58:00,40.6,32.3,29.48,East,90,1.2,0.0,72,0.00,CLR,SKC,0.00,WeatherDisplay:10.37,2013-01-10 17:58:00,
2013-01-10 13:03:00,40.5,32.1,29.48,NE,45,0.0,0.0,72,0.00,CLR,SKC,0.00,WeatherDisplay:10.37,2013-01-10 18:03:00,
2013-01-10 13:08:00,40.8,32.5,29.48,NE,45,0.0,1.6,72,0.00,CLR,SKC,0.00,WeatherDisplay:10.37,2013-01-10 18:08:00,
2013-01-10 13:13:00,40.3,31.6,29.47,East,90,6.9,6.9,71,0.00,CLR,SKC,0.00,WeatherDisplay:10.37,2013-01-10 18:13:00,
2013-01-10 13:18:00,40.5,32.1,29.47,NE,45,2.3,4.5,72,0.00,CLR,SKC,0.00,WeatherDisplay:10.37,2013-01-10 18:18:00,
2013-01-10 13:23:00,39.9,31.6,29.47,East,90,5.8,5.8,72,0.00,CLR,SKC,0.00,WeatherDisplay:10.37,2013-01-10 18:23:00,
2013-01-10 13:28:00,39.9,31.6,29.48,NE,45,4.6,4.6,72,0.00,CLR,SKC,0.00,WeatherDisplay:10.37,2013-01-10 18:28:00,
2013-01-10 13:33:00,40.5,32.1,29.47,NE,45,5.8,5.8,72,0.00,CLR,SKC,0.00,WeatherDisplay:10.37,2013-01-10 18:33:00,
2013-01-10 13:38:00,40.5,32.5,29.47,East,90,2.3,0.0,73,0.00,CLR,SKC,0.00,WeatherDisplay:10.37,2013-01-10 18:38:00,
2013-01-10 13:43:00,41.0,33.0,29.47,SE,135,3.5,0.0,73,0.00,CLR,SKC,0.00,WeatherDisplay:10.37,2013-01-10 18:43:00,
2013-01-10 13:48:00,41.2,32.8,29.47,East,90,2.3,2.3,72,0.00,CLR,SKC,0.00,WeatherDisplay:10.37,2013-01-10 18:48:00,
2013-01-10 13:53:00,40.6,32.3,29.47,East,90,5.8,5.8,72,0.00,CLR,SKC,0.00,WeatherDisplay:10.37,2013-01-10 18:53:00,
2013-01-10 13:58:00,40.8,32.8,29.47,East,90,3.5,3.5,73,0.00,CLR,SKC,0.00,WeatherDisplay:10.37,2013-01-10 18:58:00,
2013-01-10 14:03:00,40.8,32.8,29.46,NE,45,1.2,0.0,73,0.00,CLR,SKC,0.00,WeatherDisplay:10.37,2013-01-10 19:03:00,
2013-01-10 14:08:00,40.8,32.8,29.47,NE,45,3.5,3.5,73,0.00,CLR,SKC,0.00,WeatherDisplay:10.37,2013-01-10 19:08:00,
2013-01-10 14:13:00,41.0,33.0,29.47,East,90,3.5,3.5,73,0.00,CLR,SKC,0.00,WeatherDisplay:10.37,2013-01-10 19:13:00,
2013-01-10 14:18:00,41.0,33.0,29.47,East,90,2.3,0.0,73,0.00,CLR,SKC,0.00,WeatherDisplay:10.37,2013-01-10 19:18:00,
2013-01-10 14:23:00,41.7,33.7,29.46,SE,135,1.6,1.6,73,0.00,CLR,SKC,0.00,WeatherDisplay:10.37,2013-01-10 19:23:00,
2013-01-10 14:28:00,42.1,33.4,29.46,North,0,3.5,3.5,71,0.00,CLR,SKC,0.00,WeatherDisplay:10.37,2013-01-10 19:28:00,
2013-01-10 14:33:00,42.1,33.7,29.45,NE,45,1.2,0.0,72,0.00,CLR,SKC,0.00,WeatherDisplay:10.37,2013-01-10 19:33:00,
2013-01-10 14:38:00,42.1,33.7,29.45,NE,45,3.5,3.5,72,0.00,CLR,SKC,0.00,WeatherDisplay:10.37,2013-01-10 19:38:00,
2013-01-10 14:43:00,41.7,33.4,29.44,NW,315,3.5,3.5,72,0.00,CLR,SKC,0.00,WeatherDisplay:10.37,2013-01-10 19:43:00,
2013-01-10 14:48:00,41.7,33.4,29.44,North,0,1.2,1.6,72,0.00,CLR,SKC,0.00,WeatherDisplay:10.37,2013-01-10 19:48:00,
2013-01-10 14:53:00,41.5,33.2,29.45,NE,45,3.5,3.5,72,0.00,CLR,SKC,0.00,WeatherDisplay:10.37,2013-01-10 19:53:00,
2013-01-10 14:58:00,41.2,33.2,29.44,NE,45,3.5,3.5,73,0.00,CLR,SKC,0.00,WeatherDisplay:10.37,2013-01-10 19:58:00,
2013-01-10 15:03:00,41.2,33.2,29.45,NE,45,0.0,0.0,73,0.00,CLR,SKC,0.00,WeatherDisplay:10.37,2013-01-10 20:03:00,
2013-01-10 15:08:00,41.5,33.5,29.44,NE,45,4.5,4.5,73,0.00,CLR,SKC,0.00,WeatherDisplay:10.37,2013-01-10 20:08:00,
2013-01-10 15:13:00,41.4,33.4,29.44,NE,45,3.5,3.5,73,0.00,CLR,SKC,0.00,WeatherDisplay:10.37,2013-01-10 20:13:00,
2013-01-10 15:19:00,41.4,33.7,29.44,NE,45,3.5,3.5,74,0.00,CLR,SKC,0.00,WeatherDisplay:10.37,2013-01-10 20:19:00,
2013-01-10 15:24:00,41.0,33.3,29.44,NE,45,3.5,3.5,74,0.00,CLR,SKC,0.00,WeatherDisplay:10.37,2013-01-10 20:24:00,
2013-01-10 15:29:00,40.8,33.2,29.43,NE,45,3.5,3.5,74,0.00,CLR,SKC,0.00,WeatherDisplay:10.37,2013-01-10 20:29:00,
2013-01-10 15:34:00,40.5,33.2,29.43,North,0,5.8,5.8,75,0.00,CLR,SKC,0.00,WeatherDisplay:10.37,2013-01-10 20:34:00,
2013-01-10 15:39:00,40.1,32.8,29.43,NE,45,8.1,8.1,75,0.00,CLR,SKC,0.00,WeatherDisplay:10.37,2013-01-10 20:39:00,
2013-01-10 15:44:00,39.9,32.6,29.43,NE,45,5.8,5.8,75,0.00,CLR,SKC,0.00,WeatherDisplay:10.37,2013-01-10 20:44:00,
2013-01-10 15:49:00,39.9,33.0,29.43,NE,45,5.8,5.8,76,0.00,CLR,SKC,0.00,WeatherDisplay:10.37,2013-01-10 20:49:00,
2013-01-10 15:54:00,39.9,33.0,29.43,NE,45,1.2,0.0,76,0.00,CLR,SKC,0.00,WeatherDisplay:10.37,2013-01-10 20:54:00,
2013-01-10 15:59:00,39.9,33.0,29.43,NE,45,4.6,4.6,76,0.00,CLR,SKC,0.00,WeatherDisplay:10.37,2013-01-10 20:59:00,
2013-01-10 16:04:00,39.9,33.0,29.43,SE,135,4.6,4.6,76,0.00,CLR,SKC,0.00,WeatherDisplay:10.37,2013-01-10 21:04:00,
2013-01-10 16:09:00,39.7,32.8,29.42,NE,45,5.8,5.8,76,0.00,CLR,SKC,0.00,WeatherDisplay:10.37,2013-01-10 21:09:00,
2013-01-10 16:14:00,39.6,32.6,29.42,North,0,5.8,5.8,76,0.00,CLR,SKC,0.00,WeatherDisplay:10.37,2013-01-10 21:14:00,
2013-01-10 16:19:00,39.4,32.1,29.42,East,90,5.8,5.8,75,0.00,CLR,SKC,0.00,WeatherDisplay:10.37,2013-01-10 21:19:00,
2013-01-10 16:24:00,39.4,32.1,29.41,NE,45,8.1,8.1,75,0.00,CLR,SKC,0.00,WeatherDisplay:10.37,2013-01-10 21:24:00,
2013-01-10 16:29:00,39.2,31.9,29.41,NE,45,10.4,10.4,75,0.00,CLR,SKC,0.00,WeatherDisplay:10.37,2013-01-10 21:29:00,
2013-01-10 16:34:00,39.2,31.9,29.41,NE,45,8.1,8.1,75,0.00,CLR,SKC,0.00,WeatherDisplay:10.37,2013-01-10 21:34:00,
2013-01-10 16:40:00,39.0,31.8,29.41,NE,45,5.8,5.8,75,0.00,CLR,SKC,0.00,WeatherDisplay:10.37,2013-01-10 21:40:00,
2013-01-10 16:45:00,38.8,31.9,29.41,NE,45,8.1,8.1,76,0.00,CLR,SKC,0.00,WeatherDisplay:10.37,2013-01-10 21:45:00,
2013-01-10 16:50:00,38.7,31.7,29.41,East,90,8.1,8.1,76,0.00,CLR,SKC,0.00,WeatherDisplay:10.37,2013-01-10 21:50:00,
2013-01-10 16:55:00,38.5,31.6,29.40,NE,45,4.5,4.5,76,0.00,CLR,SKC,0.00,WeatherDisplay:10.37,2013-01-10 21:55:00,
2013-01-10 17:00:00,38.3,31.7,29.41,NE,45,4.6,4.6,77,0.00,CLR,SKC,0.00,WeatherDisplay:10.37,2013-01-10 22:00:00,
2013-01-10 17:05:00,38.3,31.7,29.40,NE,45,5.8,5.8,77,0.00,CLR,SKC,0.00,WeatherDisplay:10.37,2013-01-10 22:05:00,
2013-01-10 17:10:00,38.1,31.5,29.39,NE,45,6.9,6.9,77,0.00,CLR,SKC,0.00,WeatherDisplay:10.37,2013-01-10 22:10:00,
2013-01-10 17:15:00,37.9,31.7,29.40,NE,45,5.8,5.8,78,0.00,CLR,SKC,0.00,WeatherDisplay:10.37,2013-01-10 22:15:00,
2013-01-10 17:20:00,37.9,31.7,29.40,NE,45,6.9,6.9,78,0.00,CLR,SKC,0.00,WeatherDisplay:10.37,2013-01-10 22:20:00,
2013-01-10 17:25:00,37.8,31.5,29.39,NE,45,6.9,6.9,78,0.00,CLR,SKC,0.00,WeatherDisplay:10.37,2013-01-10 22:25:00,
2013-01-10 17:30:00,37.8,31.8,29.39,NE,45,8.1,8.1,79,0.00,CLR,SKC,0.00,WeatherDisplay:10.37,2013-01-10 22:30:00,
2013-01-10 17:35:00,37.8,31.8,29.39,NE,45,6.9,6.9,79,0.00,CLR,SKC,0.00,WeatherDisplay:10.37,2013-01-10 22:35:00,
2013-01-10 17:40:00,37.8,31.8,29.39,NE,45,8.1,8.1,79,0.00,CLR,SKC,0.00,WeatherDisplay:10.37,2013-01-10 22:40:00,
2013-01-10 17:45:00,37.8,31.5,29.39,NE,45,8.1,8.1,78,0.00,CLR,SKC,0.00,WeatherDisplay:10.37,2013-01-10 22:45:00,
2013-01-10 17:50:00,37.8,31.5,29.39,ENE,68,5.8,5.8,78,0.00,CLR,SKC,0.00,WeatherDisplay:10.37,2013-01-10 22:50:00,
2013-01-10 17:56:00,37.8,31.5,29.39,NE,45,8.1,8.1,78,0.00,CLR,SKC,0.00,WeatherDisplay:10.37,2013-01-10 22:56:00,
2013-01-10 18:01:00,37.8,31.5,29.39,NE,45,5.8,5.8,78,0.00,CLR,SKC,0.00,WeatherDisplay:10.37,2013-01-10 23:01:00,
2013-01-10 18:06:00,37.8,31.5,29.39,NE,45,5.8,5.8,78,0.00,CLR,SKC,0.00,WeatherDisplay:10.37,2013-01-10 23:06:00,
2013-01-10 18:11:00,37.8,31.5,29.39,NE,45,8.1,8.1,78,0.00,CLR,SKC,0.00,WeatherDisplay:10.37,2013-01-10 23:11:00,
2013-01-10 18:16:00,37.8,31.5,29.39,NE,45,8.1,8.1,78,0.00,CLR,SKC,0.00,WeatherDisplay:10.37,2013-01-10 23:16:00,
2013-01-10 18:21:00,37.8,31.5,29.39,NE,45,5.8,5.8,78,0.00,CLR,SKC,0.00,WeatherDisplay:10.37,2013-01-10 23:21:00,
2013-01-10 18:26:00,37.8,31.5,29.38,NE,45,5.8,5.8,78,0.00,CLR,SKC,0.00,WeatherDisplay:10.37,2013-01-10 23:26:00,
2013-01-10 18:31:00,37.9,31.4,29.38,NE,45,5.8,5.8,77,0.00,CLR,SKC,0.00,WeatherDisplay:10.37,2013-01-10 23:31:00,
2013-01-10 18:36:00,37.9,31.4,29.39,East,90,4.6,4.6,77,0.00,CLR,SKC,0.00,WeatherDisplay:10.37,2013-01-10 23:36:00,
2013-01-10 18:41:00,38.1,31.5,29.38,NE,45,8.1,8.1,77,0.00,CLR,SKC,0.00,WeatherDisplay:10.37,2013-01-10 23:41:00,
2013-01-10 18:46:00,38.1,31.5,29.38,East,90,5.8,5.8,77,0.00,CLR,SKC,0.00,WeatherDisplay:10.37,2013-01-10 23:46:00,
2013-01-10 18:51:00,38.1,31.5,29.38,NNE,22,6.9,6.9,77,0.00,CLR,SKC,0.00,WeatherDisplay:10.37,2013-01-10 23:51:00,
2013-01-10 18:56:00,38.3,31.7,29.38,ENE,68,3.5,3.5,77,0.00,CLR,SKC,0.00,WeatherDisplay:10.37,2013-01-10 23:56:00,
2013-01-10 19:01:00,38.3,31.7,29.38,NE,45,5.8,5.8,77,0.00,CLR,SKC,0.00,WeatherDisplay:10.37,2013-01-11 00:01:00,
2013-01-10 19:06:00,38.3,31.4,29.37,NE,45,8.1,8.1,76,0.00,CLR,SKC,0.00,WeatherDisplay:10.37,2013-01-11 00:06:00,
2013-01-10 19:11:00,38.3,31.4,29.37,East,90,5.8,5.8,76,0.00,CLR,SKC,0.00,WeatherDisplay:10.37,2013-01-11 00:11:00,
2013-01-10 19:16:00,38.3,31.7,29.37,NE,45,5.8,5.8,77,0.00,CLR,SKC,0.00,WeatherDisplay:10.37,2013-01-11 00:16:00,
2013-01-10 19:21:00,38.3,31.7,29.36,NE,45,6.9,6.9,77,0.00,CLR,SKC,0.00,WeatherDisplay:10.37,2013-01-11 00:21:00,
2013-01-10 19:26:00,38.5,31.6,29.36,NE,45,8.1,8.1,76,0.00,CLR,SKC,0.00,WeatherDisplay:10.37,2013-01-11 00:26:00,
2013-01-10 19:31:00,38.5,31.6,29.36,East,90,8.1,8.1,76,0.00,CLR,SKC,0.00,WeatherDisplay:10.37,2013-01-11 00:31:00,
2013-01-10 19:36:00,38.7,31.4,29.36,NE,45,6.9,6.9,75,0.00,CLR,SKC,0.00,WeatherDisplay:10.37,2013-01-11 00:36:00,
2013-01-10 19:41:00,38.7,31.4,29.36,NE,45,6.9,6.9,75,0.00,CLR,SKC,0.00,WeatherDisplay:10.37,2013-01-11 00:41:00,
2013-01-10 19:46:00,38.8,31.6,29.36,NE,45,6.9,6.9,75,0.00,CLR,SKC,0.00,WeatherDisplay:10.37,2013-01-11 00:46:00,
2013-01-10 19:51:00,38.8,31.6,29.36,NE,45,8.1,8.1,75,0.00,CLR,SKC,0.00,WeatherDisplay:10.37,2013-01-11 00:51:00,
2013-01-10 19:56:00,39.0,31.4,29.36,NE,45,6.9,6.9,74,0.00,CLR,SKC,0.00,WeatherDisplay:10.37,2013-01-11 00:56:00,
2013-01-10 20:01:00,38.8,31.6,29.35,North,0,6.0,6.0,75,0.00,CLR,SKC,0.00,WeatherDisplay:10.37,2013-01-11 01:01:00,
2013-01-10 20:06:00,38.8,31.6,29.35,North,0,5.8,5.8,75,0.00,CLR,SKC,0.00,WeatherDisplay:10.37,2013-01-11 01:06:00,
2013-01-10 20:11:00,38.5,31.6,29.35,NE,45,6.9,6.9,76,0.00,CLR,SKC,0.00,WeatherDisplay:10.37,2013-01-11 01:11:00,
2013-01-10 20:16:00,38.3,31.4,29.34,SE,135,8.1,8.1,76,0.00,CLR,SKC,0.00,WeatherDisplay:10.37,2013-01-11 01:16:00,
2013-01-10 20:21:00,38.3,31.4,29.34,NE,45,9.2,9.2,76,0.00,CLR,SKC,0.00,WeatherDisplay:10.37,2013-01-11 01:21:00,
2013-01-10 20:26:00,38.3,31.4,29.33,NE,45,9.2,9.2,76,0.00,CLR,SKC,0.00,WeatherDisplay:10.37,2013-01-11 01:26:00,
2013-01-10 20:31:00,38.3,31.4,29.33,East,90,8.1,8.1,76,0.00,CLR,SKC,0.00,WeatherDisplay:10.37,2013-01-11 01:31:00,
2013-01-10 20:36:00,38.3,31.1,29.33,NE,45,8.1,8.1,75,0.00,CLR,SKC,0.00,WeatherDisplay:10.37,2013-01-11 01:36:00,
2013-01-10 20:41:00,38.5,31.2,29.33,NE,45,9.2,9.2,75,0.00,CLR,SKC,0.00,WeatherDisplay:10.37,2013-01-11 01:41:00,
2013-01-10 20:46:00,38.5,31.2,29.33,NE,45,6.9,6.9,75,0.00,CLR,SKC,0.00,WeatherDisplay:10.37,2013-01-11 01:46:00,
2013-01-10 20:51:00,38.5,30.9,29.33,NE,45,8.3,8.3,74,0.00,CLR,SKC,0.00,WeatherDisplay:10.37,2013-01-11 01:51:00,
2013-01-10 20:56:00,38.8,30.9,29.32,NE,45,10.4,10.4,73,0.00,CLR,SKC,0.00,WeatherDisplay:10.37,2013-01-11 01:56:00,
2013-01-10 21:01:00,39.0,31.1,29.32,NE,45,9.2,9.2,73,0.00,CLR,SKC,0.00,WeatherDisplay:10.37,2013-01-11 02:01:00,
2013-01-10 21:06:00,39.0,31.1,29.32,NE,45,9.2,9.2,73,0.00,CLR,SKC,0.00,WeatherDisplay:10.37,2013-01-11 02:06:00,
2013-01-10 21:11:00,39.2,30.9,29.32,NE,45,11.5,11.5,72,0.00,CLR,SKC,0.00,WeatherDisplay:10.37,2013-01-11 02:11:00,
2013-01-10 21:16:00,39.4,30.8,29.31,NE,45,9.2,9.2,71,0.00,CLR,SKC,0.00,WeatherDisplay:10.37,2013-01-11 02:16:00,
2013-01-10 21:21:00,39.4,30.8,29.31,East,90,8.1,8.1,71,0.00,CLR,SKC,0.00,WeatherDisplay:10.37,2013-01-11 02:21:00,
2013-01-10 21:26:00,39.4,30.8,29.31,NE,45,6.9,6.9,71,0.00,CLR,SKC,0.00,WeatherDisplay:10.37,2013-01-11 02:26:00,
2013-01-10 21:31:00,39.4,30.8,29.31,NE,45,8.1,8.1,71,0.00,CLR,SKC,0.00,WeatherDisplay:10.37,2013-01-11 02:31:00,
2013-01-10 21:36:00,39.6,30.9,29.31,ENE,68,9.2,9.2,71,0.00,CLR,SKC,0.00,WeatherDisplay:10.37,2013-01-11 02:36:00,
2013-01-10 21:41:00,39.6,30.6,29.31,NE,45,8.1,8.1,70,0.00,CLR,SKC,0.00,WeatherDisplay:10.37,2013-01-11 02:41:00,
2013-01-10 21:46:00,39.6,30.6,29.31,NE,45,8.1,8.1,70,0.00,CLR,SKC,0.00,WeatherDisplay:10.37,2013-01-11 02:46:00,
2013-01-10 21:52:00,39.7,30.8,29.30,East,90,8.1,8.1,70,0.00,CLR,SKC,0.00,WeatherDisplay:10.37,2013-01-11 02:52:00,
2013-01-10 21:57:00,39.7,30.8,29.30,NE,45,8.1,8.1,70,0.00,CLR,SKC,0.00,WeatherDisplay:10.37,2013-01-11 02:57:00,
2013-01-10 22:02:00,39.9,30.6,29.30,NE,45,5.8,5.8,69,0.00,CLR,SKC,0.00,WeatherDisplay:10.37,2013-01-11 03:02:00,
2013-01-10 22:07:00,39.9,30.6,29.29,NE,45,5.8,5.8,69,0.00,CLR,SKC,0.00,WeatherDisplay:10.37,2013-01-11 03:07:00,
2013-01-10 22:12:00,40.1,30.4,29.29,NE,45,8.1,8.1,68,0.00,CLR,SKC,0.00,WeatherDisplay:10.37,2013-01-11 03:12:00,
2013-01-10 22:17:00,40.3,30.6,29.29,NE,45,6.9,6.9,68,0.00,CLR,SKC,0.00,WeatherDisplay:10.37,2013-01-11 03:17:00,
2013-01-10 22:22:00,40.5,30.7,29.29,NE,45,5.8,5.8,68,0.00,CLR,SKC,0.00,WeatherDisplay:10.37,2013-01-11 03:22:00,
2013-01-10 22:27:00,40.6,30.5,29.28,East,90,6.9,6.9,67,0.00,CLR,SKC,0.00,WeatherDisplay:10.37,2013-01-11 03:27:00,
2013-01-10 22:32:00,40.8,30.7,29.27,NE,45,9.2,9.2,67,0.00,CLR,SKC,0.00,WeatherDisplay:10.37,2013-01-11 03:32:00,
2013-01-10 22:37:00,40.8,30.7,29.28,East,90,5.8,5.8,67,0.00,CLR,SKC,0.00,WeatherDisplay:10.37,2013-01-11 03:37:00,
2013-01-10 22:42:00,41.0,30.9,29.28,NE,45,5.8,5.8,67,0.00,CLR,SKC,0.00,WeatherDisplay:10.37,2013-01-11 03:42:00,
2013-01-10 22:47:00,41.0,30.9,29.28,NE,45,6.9,6.9,67,0.00,CLR,SKC,0.00,WeatherDisplay:10.37,2013-01-11 03:47:00,
2013-01-10 22:52:00,41.2,31.0,29.27,NE,45,8.1,8.1,67,0.00,CLR,SKC,0.00,WeatherDisplay:10.37,2013-01-11 03:52:00,
2013-01-10 22:58:00,41.2,30.7,29.27,NE,45,5.8,5.8,66,0.00,CLR,SKC,0.00,WeatherDisplay:10.37,2013-01-11 03:58:00,
2013-01-10 23:03:00,41.4,30.8,29.26,NE,45,6.9,6.9,66,0.00,CLR,SKC,0.00,WeatherDisplay:10.37,2013-01-11 04:03:00,
2013-01-10 23:08:00,41.5,31.0,29.27,NE,45,6.9,6.9,66,0.00,CLR,SKC,0.00,WeatherDisplay:10.37,2013-01-11 04:08:00,
2013-01-10 23:13:00,41.5,31.0,29.26,East,90,5.8,5.8,66,0.00,CLR,SKC,0.00,WeatherDisplay:10.37,2013-01-11 04:13:00,
2013-01-10 23:18:00,41.5,31.0,29.25,East,90,5.8,5.8,66,0.00,CLR,SKC,0.00,WeatherDisplay:10.37,2013-01-11 04:18:00,
2013-01-10 23:23:00,41.5,31.0,29.25,East,90,3.5,3.5,66,0.00,CLR,SKC,0.00,WeatherDisplay:10.37,2013-01-11 04:23:00,
2013-01-10 23:28:00,41.5,31.0,29.25,East,90,3.5,3.5,66,0.00,CLR,SKC,0.00,WeatherDisplay:10.37,2013-01-11 04:28:00,
2013-01-10 23:33:00,41.5,31.0,29.25,East,90,3.5,3.5,66,0.00,CLR,SKC,0.00,WeatherDisplay:10.37,2013-01-11 04:33:00,
2013-01-10 23:38:00,41.7,31.2,29.25,East,90,3.5,3.5,66,0.00,CLR,SKC,0.00,WeatherDisplay:10.37,2013-01-11 04:38:00,
2013-01-10 23:43:00,41.7,31.2,29.25,East,90,3.5,3.5,66,0.00,CLR,SKC,0.00,WeatherDisplay:10.37,2013-01-11 04:43:00,
2013-01-10 23:48:00,41.9,31.4,29.25,East,90,3.5,3.5,66,0.00,CLR,SKC,0.00,WeatherDisplay:10.37,2013-01-11 04:48:00,
2013-01-10 23:53:00,42.3,31.3,29.24,East,90,3.5,3.5,65,0.00,CLR,SKC,0.00,WeatherDisplay:10.37,2013-01-11 04:53:00,
2013-01-10 23:58:00,42.4,31.5,29.23,East,90,4.6,4.6,65,0.00,CLR,SKC,0.00,WeatherDisplay:10.37,2013-01-11 04:58:00,